sensor_id;sensor_type;location;lat;lon;timestamp;temperature;humidity
77277;DHT22;66330;52.166;9.978;2023-05-07T00:00:09;12.40;71.80
77277;DHT22;66330;52.166;9.978;2023-05-07T00:02:35;12.40;72.30
77277;DHT22;66330;52.166;9.978;2023-05-07T00:05:01;12.50;72.70
77277;DHT22;66330;52.166;9.978;2023-05-07T00:07:28;12.50;72.70
77277;DHT22;66330;52.166;9.978;2023-05-07T00:09:53;12.40;72.60
77277;DHT22;66330;52.166;9.978;2023-05-07T00:12:19;12.40;72.20
77277;DHT22;66330;52.166;9.978;2023-05-07T00:14:44;12.40;72.70
77277;DHT22;66330;52.166;9.978;2023-05-07T00:17:11;12.40;72.00
77277;DHT22;66330;52.166;9.978;2023-05-07T00:19:36;12.40;72.60
77277;DHT22;66330;52.166;9.978;2023-05-07T00:22:02;12.60;73.10
77277;DHT22;66330;52.166;9.978;2023-05-07T00:24:28;12.40;72.90
77277;DHT22;66330;52.166;9.978;2023-05-07T00:26:53;12.40;72.10
77277;DHT22;66330;52.166;9.978;2023-05-07T00:29:19;12.40;73.00
77277;DHT22;66330;52.166;9.978;2023-05-07T00:31:45;12.40;72.70
77277;DHT22;66330;52.166;9.978;2023-05-07T00:34:10;12.40;73.00
77277;DHT22;66330;52.166;9.978;2023-05-07T00:36:36;12.40;73.10
77277;DHT22;66330;52.166;9.978;2023-05-07T00:39:02;12.50;73.30
77277;DHT22;66330;52.166;9.978;2023-05-07T00:41:29;12.40;73.20
77277;DHT22;66330;52.166;9.978;2023-05-07T00:43:56;12.40;73.30
77277;DHT22;66330;52.166;9.978;2023-05-07T00:46:22;12.30;72.90
77277;DHT22;66330;52.166;9.978;2023-05-07T00:48:48;12.60;73.30
77277;DHT22;66330;52.166;9.978;2023-05-07T00:51:15;12.30;73.40
77277;DHT22;66330;52.166;9.978;2023-05-07T00:53:41;12.30;73.50
77277;DHT22;66330;52.166;9.978;2023-05-07T00:56:06;12.20;73.20
77277;DHT22;66330;52.166;9.978;2023-05-07T00:58:33;12.20;73.40
77277;DHT22;66330;52.166;9.978;2023-05-07T01:00:59;12.20;74.00
77277;DHT22;66330;52.166;9.978;2023-05-07T01:03:24;12.80;74.70
77277;DHT22;66330;52.166;9.978;2023-05-07T01:05:51;12.10;73.90
77277;DHT22;66330;52.166;9.978;2023-05-07T01:08:18;12.60;74.30
77277;DHT22;66330;52.166;9.978;2023-05-07T01:10:44;12.00;74.20
77277;DHT22;66330;52.166;9.978;2023-05-07T01:13:12;12.50;74.50
77277;DHT22;66330;52.166;9.978;2023-05-07T01:15:38;12.10;74.50
77277;DHT22;66330;52.166;9.978;2023-05-07T01:18:06;12.10;74.60
77277;DHT22;66330;52.166;9.978;2023-05-07T01:20:32;12.10;74.60
77277;DHT22;66330;52.166;9.978;2023-05-07T01:23:00;12.00;74.50
77277;DHT22;66330;52.166;9.978;2023-05-07T01:25:26;12.00;74.60
77277;DHT22;66330;52.166;9.978;2023-05-07T01:27:52;12.00;74.70
77277;DHT22;66330;52.166;9.978;2023-05-07T01:30:19;11.90;74.90
77277;DHT22;66330;52.166;9.978;2023-05-07T01:35:29;12.00;74.80
77277;DHT22;66330;52.166;9.978;2023-05-07T01:37:56;12.00;74.80
77277;DHT22;66330;52.166;9.978;2023-05-07T01:40:23;12.00;74.60
77277;DHT22;66330;52.166;9.978;2023-05-07T01:42:50;12.00;74.70
77277;DHT22;66330;52.166;9.978;2023-05-07T01:45:15;12.00;75.00
77277;DHT22;66330;52.166;9.978;2023-05-07T01:47:42;12.00;74.70
77277;DHT22;66330;52.166;9.978;2023-05-07T01:50:09;12.00;74.70
77277;DHT22;66330;52.166;9.978;2023-05-07T01:52:36;12.00;74.80
77277;DHT22;66330;52.166;9.978;2023-05-07T01:55:03;11.70;74.30
77277;DHT22;66330;52.166;9.978;2023-05-07T01:57:28;12.00;74.20
77277;DHT22;66330;52.166;9.978;2023-05-07T01:59:54;12.10;74.70
77277;DHT22;66330;52.166;9.978;2023-05-07T02:02:19;12.00;74.50
77277;DHT22;66330;52.166;9.978;2023-05-07T02:04:45;12.50;74.40
77277;DHT22;66330;52.166;9.978;2023-05-07T02:07:10;12.40;74.10
77277;DHT22;66330;52.166;9.978;2023-05-07T02:09:36;12.00;74.40
77277;DHT22;66330;52.166;9.978;2023-05-07T02:12:01;12.60;74.60
77277;DHT22;66330;52.166;9.978;2023-05-07T02:14:27;12.00;73.50
77277;DHT22;66330;52.166;9.978;2023-05-07T02:16:53;12.00;73.50
77277;DHT22;66330;52.166;9.978;2023-05-07T02:19:18;12.00;74.20
77277;DHT22;66330;52.166;9.978;2023-05-07T02:21:46;12.20;74.50
77277;DHT22;66330;52.166;9.978;2023-05-07T02:24:12;12.00;74.20
77277;DHT22;66330;52.166;9.978;2023-05-07T02:26:39;11.90;74.10
77277;DHT22;66330;52.166;9.978;2023-05-07T02:29:05;12.00;74.30
77277;DHT22;66330;52.166;9.978;2023-05-07T02:31:30;12.00;74.20
77277;DHT22;66330;52.166;9.978;2023-05-07T02:33:56;11.90;74.10
77277;DHT22;66330;52.166;9.978;2023-05-07T02:36:21;11.90;73.60
77277;DHT22;66330;52.166;9.978;2023-05-07T02:38:47;11.90;74.10
77277;DHT22;66330;52.166;9.978;2023-05-07T02:41:12;12.00;73.90
77277;DHT22;66330;52.166;9.978;2023-05-07T02:43:38;12.20;74.50
77277;DHT22;66330;52.166;9.978;2023-05-07T02:46:05;11.90;74.00
77277;DHT22;66330;52.166;9.978;2023-05-07T02:48:31;11.90;74.10
77277;DHT22;66330;52.166;9.978;2023-05-07T02:50:57;11.90;74.00
77277;DHT22;66330;52.166;9.978;2023-05-07T02:53:23;12.50;74.30
77277;DHT22;66330;52.166;9.978;2023-05-07T02:55:55;11.90;74.10
77277;DHT22;66330;52.166;9.978;2023-05-07T02:58:21;11.90;73.90
77277;DHT22;66330;52.166;9.978;2023-05-07T03:00:47;12.10;73.90
77277;DHT22;66330;52.166;9.978;2023-05-07T03:03:12;12.00;73.40
77277;DHT22;66330;52.166;9.978;2023-05-07T03:05:38;12.00;73.80
77277;DHT22;66330;52.166;9.978;2023-05-07T03:08:03;12.00;73.80
77277;DHT22;66330;52.166;9.978;2023-05-07T03:10:29;12.00;73.90
77277;DHT22;66330;52.166;9.978;2023-05-07T03:12:55;12.00;73.50
77277;DHT22;66330;52.166;9.978;2023-05-07T03:15:21;11.90;73.70
77277;DHT22;66330;52.166;9.978;2023-05-07T03:17:47;12.40;73.90
77277;DHT22;66330;52.166;9.978;2023-05-07T03:20:13;11.90;73.20
77277;DHT22;66330;52.166;9.978;2023-05-07T03:22:39;11.90;73.70
77277;DHT22;66330;52.166;9.978;2023-05-07T03:25:05;11.90;73.80
77277;DHT22;66330;52.166;9.978;2023-05-07T03:27:30;12.50;74.50
77277;DHT22;66330;52.166;9.978;2023-05-07T03:29:56;12.40;74.30
77277;DHT22;66330;52.166;9.978;2023-05-07T03:32:22;11.90;73.80
77277;DHT22;66330;52.166;9.978;2023-05-07T03:34:47;11.90;74.00
77277;DHT22;66330;52.166;9.978;2023-05-07T03:37:13;11.90;73.40
77277;DHT22;66330;52.166;9.978;2023-05-07T03:39:38;11.90;73.30
77277;DHT22;66330;52.166;9.978;2023-05-07T03:42:04;11.90;74.00
77277;DHT22;66330;52.166;9.978;2023-05-07T03:44:29;11.80;73.90
77277;DHT22;66330;52.166;9.978;2023-05-07T03:46:55;11.90;73.70
77277;DHT22;66330;52.166;9.978;2023-05-07T03:49:21;11.90;74.10
77277;DHT22;66330;52.166;9.978;2023-05-07T03:51:46;11.90;73.40
77277;DHT22;66330;52.166;9.978;2023-05-07T03:54:12;11.80;74.00
77277;DHT22;66330;52.166;9.978;2023-05-07T03:56:37;11.90;74.50
77277;DHT22;66330;52.166;9.978;2023-05-07T03:59:03;12.20;74.60
77277;DHT22;66330;52.166;9.978;2023-05-07T04:01:28;11.80;74.00
77277;DHT22;66330;52.166;9.978;2023-05-07T04:03:54;11.80;74.20
77277;DHT22;66330;52.166;9.978;2023-05-07T04:06:19;11.80;74.00
77277;DHT22;66330;52.166;9.978;2023-05-07T04:08:46;11.80;74.40
77277;DHT22;66330;52.166;9.978;2023-05-07T04:11:11;11.80;74.40
77277;DHT22;66330;52.166;9.978;2023-05-07T04:13:37;11.80;74.40
77277;DHT22;66330;52.166;9.978;2023-05-07T04:16:03;11.80;74.30
77277;DHT22;66330;52.166;9.978;2023-05-07T04:18:29;11.90;74.10
77277;DHT22;66330;52.166;9.978;2023-05-07T04:20:54;11.80;74.30
77277;DHT22;66330;52.166;9.978;2023-05-07T04:23:20;11.90;74.30
77277;DHT22;66330;52.166;9.978;2023-05-07T04:25:46;11.90;74.40
77277;DHT22;66330;52.166;9.978;2023-05-07T04:28:11;11.90;73.70
77277;DHT22;66330;52.166;9.978;2023-05-07T04:30:38;11.90;74.30
77277;DHT22;66330;52.166;9.978;2023-05-07T04:33:03;11.90;74.20
77277;DHT22;66330;52.166;9.978;2023-05-07T04:35:29;11.90;74.10
77277;DHT22;66330;52.166;9.978;2023-05-07T04:37:54;11.90;73.30
77277;DHT22;66330;52.166;9.978;2023-05-07T04:40:20;12.30;74.00
77277;DHT22;66330;52.166;9.978;2023-05-07T04:42:45;11.90;73.50
77277;DHT22;66330;52.166;9.978;2023-05-07T04:45:11;11.90;73.10
77277;DHT22;66330;52.166;9.978;2023-05-07T04:47:38;11.90;73.50
77277;DHT22;66330;52.166;9.978;2023-05-07T04:50:05;11.90;73.70
77277;DHT22;66330;52.166;9.978;2023-05-07T04:52:30;11.90;73.70
77277;DHT22;66330;52.166;9.978;2023-05-07T04:54:58;12.10;73.90
77277;DHT22;66330;52.166;9.978;2023-05-07T04:57:24;11.90;73.60
77277;DHT22;66330;52.166;9.978;2023-05-07T04:59:49;11.90;73.30
77277;DHT22;66330;52.166;9.978;2023-05-07T05:02:15;12.30;73.10
77277;DHT22;66330;52.166;9.978;2023-05-07T05:04:41;12.00;73.40
77277;DHT22;66330;52.166;9.978;2023-05-07T05:07:07;11.90;73.40
77277;DHT22;66330;52.166;9.978;2023-05-07T05:09:32;12.00;72.80
77277;DHT22;66330;52.166;9.978;2023-05-07T05:11:59;12.00;73.40
77277;DHT22;66330;52.166;9.978;2023-05-07T05:14:24;12.00;72.80
77277;DHT22;66330;52.166;9.978;2023-05-07T05:16:50;12.00;73.30
77277;DHT22;66330;52.166;9.978;2023-05-07T05:19:16;12.50;73.20
77277;DHT22;66330;52.166;9.978;2023-05-07T05:21:42;12.00;73.20
77277;DHT22;66330;52.166;9.978;2023-05-07T05:24:07;12.10;74.00
77277;DHT22;66330;52.166;9.978;2023-05-07T05:26:34;11.90;72.10
77277;DHT22;66330;52.166;9.978;2023-05-07T05:29:00;12.00;72.70
77277;DHT22;66330;52.166;9.978;2023-05-07T05:31:25;12.00;71.60
77277;DHT22;66330;52.166;9.978;2023-05-07T05:33:51;12.00;72.40
77277;DHT22;66330;52.166;9.978;2023-05-07T05:36:16;12.00;72.20
77277;DHT22;66330;52.166;9.978;2023-05-07T05:38:42;12.30;72.20
77277;DHT22;66330;52.166;9.978;2023-05-07T05:41:08;12.10;72.20
77277;DHT22;66330;52.166;9.978;2023-05-07T05:43:33;12.10;71.30
77277;DHT22;66330;52.166;9.978;2023-05-07T05:45:59;12.10;71.40
77277;DHT22;66330;52.166;9.978;2023-05-07T05:48:25;12.10;71.50
77277;DHT22;66330;52.166;9.978;2023-05-07T05:50:51;12.30;71.30
77277;DHT22;66330;52.166;9.978;2023-05-07T05:53:16;12.10;70.90
77277;DHT22;66330;52.166;9.978;2023-05-07T05:55:42;12.10;71.30
77277;DHT22;66330;52.166;9.978;2023-05-07T05:58:09;12.10;71.20
77277;DHT22;66330;52.166;9.978;2023-05-07T06:00:34;11.80;69.90
77277;DHT22;66330;52.166;9.978;2023-05-07T06:03:00;12.20;71.10
77277;DHT22;66330;52.166;9.978;2023-05-07T06:05:26;12.20;70.70
77277;DHT22;66330;52.166;9.978;2023-05-07T06:07:51;12.20;70.80
77277;DHT22;66330;52.166;9.978;2023-05-07T06:10:17;12.20;70.70
77277;DHT22;66330;52.166;9.978;2023-05-07T06:12:42;12.20;70.60
77277;DHT22;66330;52.166;9.978;2023-05-07T06:15:08;12.30;69.90
77277;DHT22;66330;52.166;9.978;2023-05-07T06:17:34;12.50;71.30
77277;DHT22;66330;52.166;9.978;2023-05-07T06:19:59;12.40;70.30
77277;DHT22;66330;52.166;9.978;2023-05-07T06:22:25;12.60;70.20
77277;DHT22;66330;52.166;9.978;2023-05-07T06:24:51;13.10;70.40
77277;DHT22;66330;52.166;9.978;2023-05-07T06:27:16;12.60;69.30
77277;DHT22;66330;52.166;9.978;2023-05-07T06:29:42;12.60;69.10
77277;DHT22;66330;52.166;9.978;2023-05-07T06:32:12;13.30;69.20
77277;DHT22;66330;52.166;9.978;2023-05-07T06:34:38;12.80;69.20
77277;DHT22;66330;52.166;9.978;2023-05-07T06:37:04;12.80;68.80
77277;DHT22;66330;52.166;9.978;2023-05-07T06:39:30;13.00;68.00
77277;DHT22;66330;52.166;9.978;2023-05-07T06:41:57;12.90;68.50
77277;DHT22;66330;52.166;9.978;2023-05-07T06:44:22;13.00;68.30
77277;DHT22;66330;52.166;9.978;2023-05-07T06:46:48;13.00;67.90
77277;DHT22;66330;52.166;9.978;2023-05-07T06:49:14;13.30;68.10
77277;DHT22;66330;52.166;9.978;2023-05-07T06:51:39;13.30;67.10
77277;DHT22;66330;52.166;9.978;2023-05-07T06:54:05;13.90;67.50
77277;DHT22;66330;52.166;9.978;2023-05-07T06:56:31;13.50;66.60
77277;DHT22;66330;52.166;9.978;2023-05-07T06:58:57;13.60;66.60
77277;DHT22;66330;52.166;9.978;2023-05-07T07:01:22;13.70;66.50
77277;DHT22;66330;52.166;9.978;2023-05-07T07:03:48;13.90;66.40
77277;DHT22;66330;52.166;9.978;2023-05-07T07:06:14;14.00;66.00
77277;DHT22;66330;52.166;9.978;2023-05-07T07:08:40;14.10;65.50
77277;DHT22;66330;52.166;9.978;2023-05-07T07:11:06;14.20;65.00
77277;DHT22;66330;52.166;9.978;2023-05-07T07:13:31;14.30;64.70
77277;DHT22;66330;52.166;9.978;2023-05-07T07:15:57;14.70;64.00
77277;DHT22;66330;52.166;9.978;2023-05-07T07:18:23;14.50;64.80
77277;DHT22;66330;52.166;9.978;2023-05-07T07:20:48;14.60;63.50
77277;DHT22;66330;52.166;9.978;2023-05-07T07:23:14;14.80;63.80
77277;DHT22;66330;52.166;9.978;2023-05-07T07:25:39;14.90;63.20
77277;DHT22;66330;52.166;9.978;2023-05-07T07:28:06;15.00;62.80
77277;DHT22;66330;52.166;9.978;2023-05-07T07:30:31;15.10;62.00
77277;DHT22;66330;52.166;9.978;2023-05-07T07:32:57;15.70;61.90
77277;DHT22;66330;52.166;9.978;2023-05-07T07:35:28;15.30;60.80
77277;DHT22;66330;52.166;9.978;2023-05-07T07:37:54;15.40;60.30
77277;DHT22;66330;52.166;9.978;2023-05-07T07:40:19;15.20;59.40
77277;DHT22;66330;52.166;9.978;2023-05-07T07:42:45;15.40;59.70
77277;DHT22;66330;52.166;9.978;2023-05-07T07:45:11;15.40;59.60
77277;DHT22;66330;52.166;9.978;2023-05-07T07:47:37;15.50;59.50
77277;DHT22;66330;52.166;9.978;2023-05-07T07:50:02;15.50;59.00
77277;DHT22;66330;52.166;9.978;2023-05-07T07:52:28;15.60;59.10
77277;DHT22;66330;52.166;9.978;2023-05-07T07:54:53;15.70;59.30
77277;DHT22;66330;52.166;9.978;2023-05-07T07:57:19;15.80;59.30
77277;DHT22;66330;52.166;9.978;2023-05-07T07:59:44;16.00;59.00
77277;DHT22;66330;52.166;9.978;2023-05-07T08:02:10;16.10;58.30
77277;DHT22;66330;52.166;9.978;2023-05-07T08:04:36;16.20;58.30
77277;DHT22;66330;52.166;9.978;2023-05-07T08:07:02;16.40;58.40
77277;DHT22;66330;52.166;9.978;2023-05-07T08:09:28;16.30;57.90
77277;DHT22;66330;52.166;9.978;2023-05-07T08:11:54;16.30;57.60
77277;DHT22;66330;52.166;9.978;2023-05-07T08:14:19;16.20;57.40
77277;DHT22;66330;52.166;9.978;2023-05-07T08:16:45;16.10;57.60
77277;DHT22;66330;52.166;9.978;2023-05-07T08:19:10;16.10;57.80
77277;DHT22;66330;52.166;9.978;2023-05-07T08:21:38;16.70;58.00
77277;DHT22;66330;52.166;9.978;2023-05-07T08:24:04;16.10;57.80
77277;DHT22;66330;52.166;9.978;2023-05-07T08:26:30;16.10;57.60
77277;DHT22;66330;52.166;9.978;2023-05-07T08:28:55;16.10;57.80
77277;DHT22;66330;52.166;9.978;2023-05-07T08:31:21;16.10;57.50
77277;DHT22;66330;52.166;9.978;2023-05-07T08:33:46;16.10;57.50
77277;DHT22;66330;52.166;9.978;2023-05-07T08:36:12;16.10;57.20
77277;DHT22;66330;52.166;9.978;2023-05-07T08:38:38;16.10;57.30
77277;DHT22;66330;52.166;9.978;2023-05-07T08:41:06;16.10;57.40
77277;DHT22;66330;52.166;9.978;2023-05-07T08:43:33;16.00;57.10
77277;DHT22;66330;52.166;9.978;2023-05-07T08:46:01;16.10;56.90
77277;DHT22;66330;52.166;9.978;2023-05-07T08:48:29;16.10;56.90
77277;DHT22;66330;52.166;9.978;2023-05-07T08:50:57;16.10;56.70
77277;DHT22;66330;52.166;9.978;2023-05-07T08:53:23;16.10;57.10
77277;DHT22;66330;52.166;9.978;2023-05-07T08:55:49;16.40;57.30
77277;DHT22;66330;52.166;9.978;2023-05-07T08:58:15;16.40;56.90
77277;DHT22;66330;52.166;9.978;2023-05-07T09:00:40;16.10;56.90
77277;DHT22;66330;52.166;9.978;2023-05-07T09:03:07;16.10;57.00
77277;DHT22;66330;52.166;9.978;2023-05-07T09:05:32;16.10;56.60
77277;DHT22;66330;52.166;9.978;2023-05-07T09:08:02;16.10;56.90
77277;DHT22;66330;52.166;9.978;2023-05-07T09:10:29;16.20;56.70
77277;DHT22;66330;52.166;9.978;2023-05-07T09:12:55;16.20;56.80
77277;DHT22;66330;52.166;9.978;2023-05-07T09:15:20;16.20;56.60
77277;DHT22;66330;52.166;9.978;2023-05-07T09:17:46;16.30;56.80
77277;DHT22;66330;52.166;9.978;2023-05-07T09:20:12;16.20;56.40
77277;DHT22;66330;52.166;9.978;2023-05-07T09:22:37;16.20;56.40
77277;DHT22;66330;52.166;9.978;2023-05-07T09:25:04;16.20;56.60
77277;DHT22;66330;52.166;9.978;2023-05-07T09:27:30;16.20;56.40
77277;DHT22;66330;52.166;9.978;2023-05-07T09:29:56;16.20;56.40
77277;DHT22;66330;52.166;9.978;2023-05-07T09:32:22;16.10;56.50
77277;DHT22;66330;52.166;9.978;2023-05-07T09:34:47;16.00;56.10
77277;DHT22;66330;52.166;9.978;2023-05-07T09:37:13;16.00;56.20
77277;DHT22;66330;52.166;9.978;2023-05-07T09:39:47;16.00;56.60
77277;DHT22;66330;52.166;9.978;2023-05-07T09:42:13;16.00;56.60
77277;DHT22;66330;52.166;9.978;2023-05-07T09:44:43;16.00;57.30
77277;DHT22;66330;52.166;9.978;2023-05-07T09:47:10;16.10;56.90
77277;DHT22;66330;52.166;9.978;2023-05-07T09:49:39;16.10;57.00
77277;DHT22;66330;52.166;9.978;2023-05-07T09:52:07;16.20;57.00
77277;DHT22;66330;52.166;9.978;2023-05-07T09:54:37;16.20;56.80
77277;DHT22;66330;52.166;9.978;2023-05-07T09:57:05;16.10;56.30
77277;DHT22;66330;52.166;9.978;2023-05-07T09:59:33;16.40;56.40
77277;DHT22;66330;52.166;9.978;2023-05-07T10:02:00;16.50;56.60
77277;DHT22;66330;52.166;9.978;2023-05-07T10:04:26;16.50;56.50
77277;DHT22;66330;52.166;9.978;2023-05-07T10:06:52;16.50;56.70
77277;DHT22;66330;52.166;9.978;2023-05-07T10:09:19;16.50;56.10
77277;DHT22;66330;52.166;9.978;2023-05-07T10:11:45;16.50;56.10
77277;DHT22;66330;52.166;9.978;2023-05-07T10:14:11;16.50;56.20
77277;DHT22;66330;52.166;9.978;2023-05-07T10:16:37;16.60;55.90
77277;DHT22;66330;52.166;9.978;2023-05-07T10:19:03;16.70;56.00
77277;DHT22;66330;52.166;9.978;2023-05-07T10:21:30;16.70;55.80
77277;DHT22;66330;52.166;9.978;2023-05-07T10:24:14;16.80;55.70
77277;DHT22;66330;52.166;9.978;2023-05-07T10:26:47;16.90;55.70
77277;DHT22;66330;52.166;9.978;2023-05-07T10:29:49;17.10;55.70
77277;DHT22;66330;52.166;9.978;2023-05-07T10:32:40;17.00;55.40
77277;DHT22;66330;52.166;9.978;2023-05-07T10:35:17;17.10;55.30
77277;DHT22;66330;52.166;9.978;2023-05-07T10:37:45;17.10;55.20
77277;DHT22;66330;52.166;9.978;2023-05-07T10:40:12;17.10;55.00
77277;DHT22;66330;52.166;9.978;2023-05-07T10:42:37;17.10;54.90
77277;DHT22;66330;52.166;9.978;2023-05-07T10:45:13;17.10;54.90
77277;DHT22;66330;52.166;9.978;2023-05-07T10:48:14;17.20;54.80
77277;DHT22;66330;52.166;9.978;2023-05-07T10:50:42;17.20;54.70
77277;DHT22;66330;52.166;9.978;2023-05-07T10:55:49;17.40;54.90
77277;DHT22;66330;52.166;9.978;2023-05-07T11:00:47;17.40;54.10
77277;DHT22;66330;52.166;9.978;2023-05-07T11:03:13;17.70;54.10
77277;DHT22;66330;52.166;9.978;2023-05-07T11:05:40;17.90;53.90
77277;DHT22;66330;52.166;9.978;2023-05-07T11:08:06;18.10;53.50
77277;DHT22;66330;52.166;9.978;2023-05-07T11:10:51;18.40;53.50
77277;DHT22;66330;52.166;9.978;2023-05-07T11:13:18;18.80;53.00
77277;DHT22;66330;52.166;9.978;2023-05-07T11:15:45;19.20;52.60
77277;DHT22;66330;52.166;9.978;2023-05-07T11:18:16;19.40;51.90
77277;DHT22;66330;52.166;9.978;2023-05-07T11:26:06;19.60;50.70
77277;DHT22;66330;52.166;9.978;2023-05-07T11:28:43;19.70;50.70
77277;DHT22;66330;52.166;9.978;2023-05-07T11:31:10;19.60;50.40
77277;DHT22;66330;52.166;9.978;2023-05-07T11:33:37;19.40;50.20
77277;DHT22;66330;52.166;9.978;2023-05-07T11:36:03;19.80;50.30
77277;DHT22;66330;52.166;9.978;2023-05-07T11:38:36;20.00;50.00
77277;DHT22;66330;52.166;9.978;2023-05-07T11:41:03;20.20;49.90
77277;DHT22;66330;52.166;9.978;2023-05-07T11:43:30;20.40;49.60
77277;DHT22;66330;52.166;9.978;2023-05-07T11:46:13;20.50;49.10
77277;DHT22;66330;52.166;9.978;2023-05-07T11:48:39;20.40;48.70
77277;DHT22;66330;52.166;9.978;2023-05-07T11:51:07;20.40;48.80
77277;DHT22;66330;52.166;9.978;2023-05-07T11:53:42;20.50;48.60
77277;DHT22;66330;52.166;9.978;2023-05-07T11:56:09;20.50;48.40
77277;DHT22;66330;52.166;9.978;2023-05-07T11:58:36;20.50;48.30
77277;DHT22;66330;52.166;9.978;2023-05-07T12:01:02;20.50;48.10
77277;DHT22;66330;52.166;9.978;2023-05-07T12:03:28;20.40;48.00
77277;DHT22;66330;52.166;9.978;2023-05-07T12:05:53;20.40;48.40
77277;DHT22;66330;52.166;9.978;2023-05-07T12:08:20;19.90;48.00
77277;DHT22;66330;52.166;9.978;2023-05-07T12:10:48;20.40;48.60
77277;DHT22;66330;52.166;9.978;2023-05-07T12:15:41;20.60;48.40
77277;DHT22;66330;52.166;9.978;2023-05-07T12:18:07;20.80;48.40
77277;DHT22;66330;52.166;9.978;2023-05-07T12:20:34;20.90;48.40
77277;DHT22;66330;52.166;9.978;2023-05-07T12:23:01;21.00;48.00
77277;DHT22;66330;52.166;9.978;2023-05-07T12:25:30;21.00;48.20
77277;DHT22;66330;52.166;9.978;2023-05-07T12:27:56;21.00;47.60
77277;DHT22;66330;52.166;9.978;2023-05-07T12:30:24;21.00;47.60
77277;DHT22;66330;52.166;9.978;2023-05-07T12:32:53;21.00;47.60
77277;DHT22;66330;52.166;9.978;2023-05-07T12:35:26;21.40;47.70
77277;DHT22;66330;52.166;9.978;2023-05-07T12:37:59;21.00;47.30
77277;DHT22;66330;52.166;9.978;2023-05-07T12:40:45;21.00;47.40
77277;DHT22;66330;52.166;9.978;2023-05-07T12:43:24;21.10;47.20
77277;DHT22;66330;52.166;9.978;2023-05-07T12:45:51;21.10;47.00
77277;DHT22;66330;52.166;9.978;2023-05-07T12:48:17;21.00;47.10
77277;DHT22;66330;52.166;9.978;2023-05-07T12:50:44;21.00;47.10
77277;DHT22;66330;52.166;9.978;2023-05-07T12:53:11;21.10;47.20
77277;DHT22;66330;52.166;9.978;2023-05-07T12:55:45;21.30;47.10
77277;DHT22;66330;52.166;9.978;2023-05-07T12:58:18;21.60;46.80
77277;DHT22;66330;52.166;9.978;2023-05-07T13:00:46;21.60;46.60
77277;DHT22;66330;52.166;9.978;2023-05-07T13:03:21;21.60;46.40
77277;DHT22;66330;52.166;9.978;2023-05-07T13:05:48;21.70;46.00
77277;DHT22;66330;52.166;9.978;2023-05-07T13:08:24;21.90;46.10
77277;DHT22;66330;52.166;9.978;2023-05-07T13:10:49;22.20;45.80
77277;DHT22;66330;52.166;9.978;2023-05-07T13:13:15;22.50;45.40
77277;DHT22;66330;52.166;9.978;2023-05-07T13:15:40;22.60;45.20
77277;DHT22;66330;52.166;9.978;2023-05-07T13:18:06;22.70;45.10
77277;DHT22;66330;52.166;9.978;2023-05-07T13:20:32;22.90;45.20
77277;DHT22;66330;52.166;9.978;2023-05-07T13:22:57;23.30;44.60
77277;DHT22;66330;52.166;9.978;2023-05-07T13:25:23;23.90;44.20
77277;DHT22;66330;52.166;9.978;2023-05-07T13:27:48;23.90;43.60
77277;DHT22;66330;52.166;9.978;2023-05-07T13:30:14;24.40;43.30
77277;DHT22;66330;52.166;9.978;2023-05-07T13:32:39;24.80;42.50
77277;DHT22;66330;52.166;9.978;2023-05-07T13:35:05;25.30;41.90
77277;DHT22;66330;52.166;9.978;2023-05-07T13:37:31;25.70;41.40
77277;DHT22;66330;52.166;9.978;2023-05-07T13:39:57;26.10;40.70
77277;DHT22;66330;52.166;9.978;2023-05-07T13:42:22;26.70;40.10
77277;DHT22;66330;52.166;9.978;2023-05-07T13:44:48;27.10;38.90
77277;DHT22;66330;52.166;9.978;2023-05-07T13:47:13;27.20;38.20
77277;DHT22;66330;52.166;9.978;2023-05-07T13:49:39;27.30;37.90
77277;DHT22;66330;52.166;9.978;2023-05-07T13:52:04;27.30;37.30
77277;DHT22;66330;52.166;9.978;2023-05-07T13:54:30;27.30;37.10
77277;DHT22;66330;52.166;9.978;2023-05-07T13:56:55;27.40;37.00
77277;DHT22;66330;52.166;9.978;2023-05-07T13:59:21;27.50;36.60
77277;DHT22;66330;52.166;9.978;2023-05-07T14:01:46;27.50;36.40
77277;DHT22;66330;52.166;9.978;2023-05-07T14:04:12;27.80;36.60
77277;DHT22;66330;52.166;9.978;2023-05-07T14:06:38;27.00;36.40
77277;DHT22;66330;52.166;9.978;2023-05-07T14:09:04;26.70;36.60
77277;DHT22;66330;52.166;9.978;2023-05-07T14:11:29;26.30;36.70
77277;DHT22;66330;52.166;9.978;2023-05-07T14:13:55;25.90;37.00
77277;DHT22;66330;52.166;9.978;2023-05-07T14:16:22;25.60;37.30
77277;DHT22;66330;52.166;9.978;2023-05-07T14:18:47;25.50;37.70
77277;DHT22;66330;52.166;9.978;2023-05-07T14:21:13;25.40;37.70
77277;DHT22;66330;52.166;9.978;2023-05-07T14:23:39;25.30;37.70
77277;DHT22;66330;52.166;9.978;2023-05-07T14:26:04;25.10;37.70
77277;DHT22;66330;52.166;9.978;2023-05-07T14:28:30;24.80;37.70
77277;DHT22;66330;52.166;9.978;2023-05-07T14:30:56;24.60;38.10
77277;DHT22;66330;52.166;9.978;2023-05-07T14:33:21;24.20;38.30
77277;DHT22;66330;52.166;9.978;2023-05-07T14:35:47;23.90;38.60
77277;DHT22;66330;52.166;9.978;2023-05-07T14:38:14;23.60;39.00
77277;DHT22;66330;52.166;9.978;2023-05-07T14:40:41;23.20;39.40
77277;DHT22;66330;52.166;9.978;2023-05-07T14:43:06;23.10;39.80
77277;DHT22;66330;52.166;9.978;2023-05-07T14:45:32;22.90;40.20
77277;DHT22;66330;52.166;9.978;2023-05-07T14:47:57;22.60;40.30
77277;DHT22;66330;52.166;9.978;2023-05-07T14:50:23;22.40;40.70
77277;DHT22;66330;52.166;9.978;2023-05-07T14:52:48;22.30;41.10
77277;DHT22;66330;52.166;9.978;2023-05-07T14:55:14;22.00;41.80
77277;DHT22;66330;52.166;9.978;2023-05-07T14:57:40;21.80;41.50
77277;DHT22;66330;52.166;9.978;2023-05-07T15:00:06;21.60;41.80
77277;DHT22;66330;52.166;9.978;2023-05-07T15:02:32;21.40;42.10
77277;DHT22;66330;52.166;9.978;2023-05-07T15:04:59;21.10;42.20
77277;DHT22;66330;52.166;9.978;2023-05-07T15:07:24;20.90;42.50
77277;DHT22;66330;52.166;9.978;2023-05-07T15:09:50;20.70;43.00
77277;DHT22;66330;52.166;9.978;2023-05-07T15:12:16;20.50;43.50
77277;DHT22;66330;52.166;9.978;2023-05-07T15:14:42;20.40;43.90
77277;DHT22;66330;52.166;9.978;2023-05-07T15:17:07;20.30;43.90
77277;DHT22;66330;52.166;9.978;2023-05-07T15:19:33;20.20;44.00
77277;DHT22;66330;52.166;9.978;2023-05-07T15:22:00;20.00;44.20
77277;DHT22;66330;52.166;9.978;2023-05-07T15:24:29;20.10;44.50
77277;DHT22;66330;52.166;9.978;2023-05-07T15:26:55;19.80;44.60
77277;DHT22;66330;52.166;9.978;2023-05-07T15:29:21;19.40;44.70
77277;DHT22;66330;52.166;9.978;2023-05-07T15:31:46;19.60;45.10
77277;DHT22;66330;52.166;9.978;2023-05-07T15:34:12;19.40;45.50
77277;DHT22;66330;52.166;9.978;2023-05-07T15:36:40;19.30;45.10
77277;DHT22;66330;52.166;9.978;2023-05-07T15:39:05;19.30;45.40
77277;DHT22;66330;52.166;9.978;2023-05-07T15:41:31;18.80;45.20